Cherry Grove Beach, South Carolina
Current Conditions -  °F | °C
As of 8:15 PM on Sunday 23 Nov 2014 (Local Time) from KCRE Reporting Station
Overcast Overcast  
Wind Chill: 69°   Ceiling: 3800
Heat Index: 69°   Visibility: 9mi
Dew Point: 64°   Wind: 9mph
Humidity: 84%   Direction: 150°SSE
Pressure: 29.86"   Gusts: 33mph
Location:  33.8371°N, 78.6471°W
Report Text: KCRE 240115Z 15008G29KT 120V180 9SM SCT021 SCT031 OVC038 21/18 A2986 RMK AO1 PK WND 14029/0109 LTG DSNT W T02060178
Loading
Personal Weather Stations






























Interactive Weather Map New forecast layout! Learn more

10-Day Weather Forecast

Advertisements
Track Severe Weather on mobile